sensor_id;sensor_type;location;lat;lon;timestamp;P1;durP1;ratioP1;P2;durP2;ratioP2
20391;SDS011;10355;53.688;10.078;2022-12-18T00:00:04;14.15;;;7.25;;
20391;SDS011;10355;53.688;10.078;2022-12-18T00:02:55;11.55;;;6.80;;
20391;SDS011;10355;53.688;10.078;2022-12-18T00:05:37;12.40;;;7.05;;
20391;SDS011;10355;53.688;10.078;2022-12-18T00:08:29;13.13;;;7.28;;
20391;SDS011;10355;53.688;10.078;2022-12-18T00:11:14;16.05;;;7.95;;
20391;SDS011;10355;53.688;10.078;2022-12-18T00:13:57;13.27;;;7.55;;
20391;SDS011;10355;53.688;10.078;2022-12-18T00:16:42;13.30;;;6.95;;
20391;SDS011;10355;53.688;10.078;2022-12-18T00:19:25;12.38;;;6.97;;
20391;SDS011;10355;53.688;10.078;2022-12-18T00:22:08;13.10;;;7.13;;
20391;SDS011;10355;53.688;10.078;2022-12-18T00:24:52;13.00;;;7.20;;
20391;SDS011;10355;53.688;10.078;2022-12-18T00:27:34;11.95;;;7.00;;
20391;SDS011;10355;53.688;10.078;2022-12-18T00:30:17;14.27;;;8.10;;
20391;SDS011;10355;53.688;10.078;2022-12-18T00:33:00;14.68;;;7.47;;
20391;SDS011;10355;53.688;10.078;2022-12-18T00:35:42;11.55;;;7.00;;
20391;SDS011;10355;53.688;10.078;2022-12-18T00:38:25;12.07;;;6.93;;
20391;SDS011;10355;53.688;10.078;2022-12-18T00:41:10;13.50;;;7.35;;
20391;SDS011;10355;53.688;10.078;2022-12-18T00:43:52;13.57;;;7.35;;
20391;SDS011;10355;53.688;10.078;2022-12-18T00:46:34;11.40;;;6.90;;
20391;SDS011;10355;53.688;10.078;2022-12-18T00:49:17;12.68;;;6.78;;
20391;SDS011;10355;53.688;10.078;2022-12-18T00:52:00;13.98;;;7.40;;
20391;SDS011;10355;53.688;10.078;2022-12-18T00:54:43;12.57;;;7.18;;
20391;SDS011;10355;53.688;10.078;2022-12-18T00:57:27;13.27;;;7.10;;
20391;SDS011;10355;53.688;10.078;2022-12-18T01:00:11;13.75;;;6.80;;
20391;SDS011;10355;53.688;10.078;2022-12-18T01:02:54;12.02;;;7.07;;
20391;SDS011;10355;53.688;10.078;2022-12-18T01:05:38;11.63;;;6.60;;
20391;SDS011;10355;53.688;10.078;2022-12-18T01:08:21;14.30;;;6.18;;
20391;SDS011;10355;53.688;10.078;2022-12-18T01:11:06;13.32;;;6.85;;
20391;SDS011;10355;53.688;10.078;2022-12-18T01:13:50;13.65;;;7.43;;
20391;SDS011;10355;53.688;10.078;2022-12-18T01:16:36;13.10;;;7.13;;
20391;SDS011;10355;53.688;10.078;2022-12-18T01:19:18;12.10;;;7.10;;
20391;SDS011;10355;53.688;10.078;2022-12-18T01:22:01;13.10;;;6.93;;
20391;SDS011;10355;53.688;10.078;2022-12-18T01:24:44;13.38;;;6.90;;
20391;SDS011;10355;53.688;10.078;2022-12-18T01:27:27;12.07;;;6.30;;
20391;SDS011;10355;53.688;10.078;2022-12-18T01:30:11;11.98;;;6.28;;
20391;SDS011;10355;53.688;10.078;2022-12-18T01:32:54;12.23;;;6.85;;
20391;SDS011;10355;53.688;10.078;2022-12-18T01:35:39;12.68;;;6.78;;
20391;SDS011;10355;53.688;10.078;2022-12-18T01:38:22;14.20;;;7.07;;
20391;SDS011;10355;53.688;10.078;2022-12-18T01:41:05;11.55;;;6.68;;
20391;SDS011;10355;53.688;10.078;2022-12-18T01:43:50;11.07;;;6.57;;
20391;SDS011;10355;53.688;10.078;2022-12-18T01:46:34;12.07;;;6.82;;
20391;SDS011;10355;53.688;10.078;2022-12-18T01:49:17;11.77;;;6.60;;
20391;SDS011;10355;53.688;10.078;2022-12-18T01:51:59;12.60;;;6.15;;
20391;SDS011;10355;53.688;10.078;2022-12-18T01:54:42;11.30;;;6.50;;
20391;SDS011;10355;53.688;10.078;2022-12-18T01:57:25;10.77;;;5.93;;
20391;SDS011;10355;53.688;10.078;2022-12-18T02:00:09;11.65;;;6.40;;
20391;SDS011;10355;53.688;10.078;2022-12-18T02:02:57;10.90;;;5.72;;
20391;SDS011;10355;53.688;10.078;2022-12-18T02:05:41;10.52;;;6.28;;
20391;SDS011;10355;53.688;10.078;2022-12-18T02:08:27;9.32;;;5.72;;
20391;SDS011;10355;53.688;10.078;2022-12-18T02:11:14;10.70;;;6.00;;
20391;SDS011;10355;53.688;10.078;2022-12-18T02:14:01;10.23;;;5.90;;
20391;SDS011;10355;53.688;10.078;2022-12-18T02:16:48;14.10;;;6.10;;
20391;SDS011;10355;53.688;10.078;2022-12-18T02:19:51;11.32;;;6.32;;
20391;SDS011;10355;53.688;10.078;2022-12-18T02:22:38;10.43;;;6.05;;
20391;SDS011;10355;53.688;10.078;2022-12-18T02:25:35;10.98;;;6.15;;
20391;SDS011;10355;53.688;10.078;2022-12-18T02:28:22;11.23;;;5.97;;
20391;SDS011;10355;53.688;10.078;2022-12-18T02:31:07;9.50;;;5.68;;
20391;SDS011;10355;53.688;10.078;2022-12-18T02:33:53;10.52;;;5.95;;
20391;SDS011;10355;53.688;10.078;2022-12-18T02:36:38;9.82;;;5.93;;
20391;SDS011;10355;53.688;10.078;2022-12-18T02:39:22;10.02;;;6.22;;
20391;SDS011;10355;53.688;10.078;2022-12-18T02:42:12;11.10;;;5.95;;
20391;SDS011;10355;53.688;10.078;2022-12-18T02:44:56;9.25;;;6.00;;
20391;SDS011;10355;53.688;10.078;2022-12-18T02:47:40;12.05;;;6.13;;
20391;SDS011;10355;53.688;10.078;2022-12-18T02:50:27;9.27;;;5.90;;
20391;SDS011;10355;53.688;10.078;2022-12-18T02:53:14;14.05;;;6.38;;
20391;SDS011;10355;53.688;10.078;2022-12-18T02:56:04;9.05;;;5.35;;
20391;SDS011;10355;53.688;10.078;2022-12-18T02:58:50;11.98;;;6.18;;
20391;SDS011;10355;53.688;10.078;2022-12-18T03:01:49;8.70;;;5.78;;
20391;SDS011;10355;53.688;10.078;2022-12-18T03:04:37;11.80;;;6.35;;
20391;SDS011;10355;53.688;10.078;2022-12-18T03:07:23;9.07;;;5.72;;
20391;SDS011;10355;53.688;10.078;2022-12-18T03:10:09;8.40;;;5.35;;
20391;SDS011;10355;53.688;10.078;2022-12-18T03:12:54;10.88;;;5.90;;
20391;SDS011;10355;53.688;10.078;2022-12-18T03:15:41;10.60;;;5.70;;
20391;SDS011;10355;53.688;10.078;2022-12-18T03:18:29;11.57;;;6.05;;
20391;SDS011;10355;53.688;10.078;2022-12-18T03:21:12;8.65;;;5.32;;
20391;SDS011;10355;53.688;10.078;2022-12-18T03:23:56;10.07;;;5.80;;
20391;SDS011;10355;53.688;10.078;2022-12-18T03:26:42;8.98;;;5.57;;
20391;SDS011;10355;53.688;10.078;2022-12-18T03:29:29;8.77;;;5.68;;
20391;SDS011;10355;53.688;10.078;2022-12-18T03:32:15;12.85;;;5.68;;
20391;SDS011;10355;53.688;10.078;2022-12-18T03:34:59;10.98;;;5.30;;
20391;SDS011;10355;53.688;10.078;2022-12-18T03:37:46;13.55;;;5.60;;
20391;SDS011;10355;53.688;10.078;2022-12-18T03:40:29;8.65;;;5.25;;
20391;SDS011;10355;53.688;10.078;2022-12-18T03:43:16;10.38;;;5.22;;
20391;SDS011;10355;53.688;10.078;2022-12-18T03:46:02;8.68;;;4.90;;
20391;SDS011;10355;53.688;10.078;2022-12-18T03:48:48;9.60;;;4.93;;
20391;SDS011;10355;53.688;10.078;2022-12-18T03:51:37;8.07;;;4.95;;
20391;SDS011;10355;53.688;10.078;2022-12-18T03:54:21;9.80;;;5.22;;
20391;SDS011;10355;53.688;10.078;2022-12-18T03:57:11;11.05;;;5.43;;
20391;SDS011;10355;53.688;10.078;2022-12-18T03:59:56;8.48;;;4.70;;
20391;SDS011;10355;53.688;10.078;2022-12-18T04:02:44;9.23;;;5.03;;
20391;SDS011;10355;53.688;10.078;2022-12-18T04:05:34;11.55;;;5.45;;
20391;SDS011;10355;53.688;10.078;2022-12-18T04:08:21;8.57;;;4.80;;
20391;SDS011;10355;53.688;10.078;2022-12-18T04:11:14;8.93;;;5.20;;
20391;SDS011;10355;53.688;10.078;2022-12-18T04:13:59;10.48;;;5.28;;
20391;SDS011;10355;53.688;10.078;2022-12-18T04:16:47;9.52;;;5.35;;
20391;SDS011;10355;53.688;10.078;2022-12-18T04:19:32;8.43;;;5.07;;
20391;SDS011;10355;53.688;10.078;2022-12-18T04:22:16;6.97;;;4.72;;
20391;SDS011;10355;53.688;10.078;2022-12-18T04:25:04;9.02;;;4.88;;
20391;SDS011;10355;53.688;10.078;2022-12-18T04:27:51;9.52;;;4.57;;
20391;SDS011;10355;53.688;10.078;2022-12-18T04:30:34;8.10;;;5.00;;
20391;SDS011;10355;53.688;10.078;2022-12-18T04:33:17;8.02;;;4.93;;
20391;SDS011;10355;53.688;10.078;2022-12-18T04:36:00;8.65;;;4.90;;
20391;SDS011;10355;53.688;10.078;2022-12-18T04:38:43;10.55;;;5.30;;
20391;SDS011;10355;53.688;10.078;2022-12-18T04:41:30;9.07;;;5.10;;
20391;SDS011;10355;53.688;10.078;2022-12-18T04:44:13;8.75;;;5.40;;
20391;SDS011;10355;53.688;10.078;2022-12-18T04:46:56;9.40;;;4.53;;
20391;SDS011;10355;53.688;10.078;2022-12-18T04:49:39;10.27;;;4.80;;
20391;SDS011;10355;53.688;10.078;2022-12-18T04:52:22;7.75;;;4.75;;
20391;SDS011;10355;53.688;10.078;2022-12-18T04:55:04;9.45;;;5.10;;
20391;SDS011;10355;53.688;10.078;2022-12-18T04:57:49;8.02;;;4.70;;
20391;SDS011;10355;53.688;10.078;2022-12-18T05:00:31;7.63;;;4.63;;
20391;SDS011;10355;53.688;10.078;2022-12-18T05:03:14;9.02;;;5.13;;
20391;SDS011;10355;53.688;10.078;2022-12-18T05:05:56;9.77;;;4.65;;
20391;SDS011;10355;53.688;10.078;2022-12-18T05:08:39;12.90;;;5.45;;
20391;SDS011;10355;53.688;10.078;2022-12-18T05:11:22;9.68;;;5.15;;
20391;SDS011;10355;53.688;10.078;2022-12-18T05:14:06;9.00;;;4.90;;
20391;SDS011;10355;53.688;10.078;2022-12-18T05:16:48;8.40;;;5.13;;
20391;SDS011;10355;53.688;10.078;2022-12-18T05:19:31;7.85;;;4.80;;
20391;SDS011;10355;53.688;10.078;2022-12-18T05:22:14;8.63;;;4.80;;
20391;SDS011;10355;53.688;10.078;2022-12-18T05:24:56;8.55;;;5.13;;
20391;SDS011;10355;53.688;10.078;2022-12-18T05:27:39;9.30;;;5.25;;
20391;SDS011;10355;53.688;10.078;2022-12-18T05:30:23;8.05;;;4.82;;
20391;SDS011;10355;53.688;10.078;2022-12-18T05:33:05;10.02;;;5.32;;
20391;SDS011;10355;53.688;10.078;2022-12-18T05:35:49;9.88;;;5.22;;
20391;SDS011;10355;53.688;10.078;2022-12-18T05:38:33;9.18;;;5.35;;
20391;SDS011;10355;53.688;10.078;2022-12-18T05:41:16;9.07;;;4.90;;
20391;SDS011;10355;53.688;10.078;2022-12-18T05:43:59;9.52;;;4.85;;
20391;SDS011;10355;53.688;10.078;2022-12-18T05:46:43;9.20;;;5.20;;
20391;SDS011;10355;53.688;10.078;2022-12-18T05:49:26;9.57;;;5.43;;
20391;SDS011;10355;53.688;10.078;2022-12-18T05:52:08;8.70;;;5.00;;
20391;SDS011;10355;53.688;10.078;2022-12-18T05:54:51;8.85;;;4.70;;
20391;SDS011;10355;53.688;10.078;2022-12-18T05:57:34;9.52;;;5.90;;
20391;SDS011;10355;53.688;10.078;2022-12-18T06:00:16;10.40;;;5.28;;
20391;SDS011;10355;53.688;10.078;2022-12-18T06:03:01;9.65;;;5.45;;
20391;SDS011;10355;53.688;10.078;2022-12-18T06:05:44;9.85;;;5.20;;
20391;SDS011;10355;53.688;10.078;2022-12-18T06:08:27;9.98;;;4.95;;
20391;SDS011;10355;53.688;10.078;2022-12-18T06:11:09;7.97;;;4.63;;
20391;SDS011;10355;53.688;10.078;2022-12-18T06:13:52;9.93;;;5.20;;
20391;SDS011;10355;53.688;10.078;2022-12-18T06:16:39;9.63;;;5.50;;
20391;SDS011;10355;53.688;10.078;2022-12-18T06:19:23;8.20;;;5.07;;
20391;SDS011;10355;53.688;10.078;2022-12-18T06:22:06;10.35;;;5.20;;
20391;SDS011;10355;53.688;10.078;2022-12-18T06:24:49;8.65;;;5.10;;
20391;SDS011;10355;53.688;10.078;2022-12-18T06:27:31;9.65;;;5.50;;
20391;SDS011;10355;53.688;10.078;2022-12-18T06:30:15;8.93;;;5.40;;
20391;SDS011;10355;53.688;10.078;2022-12-18T06:32:57;9.40;;;5.13;;
20391;SDS011;10355;53.688;10.078;2022-12-18T06:35:42;8.65;;;5.60;;
20391;SDS011;10355;53.688;10.078;2022-12-18T06:38:24;7.95;;;4.95;;
20391;SDS011;10355;53.688;10.078;2022-12-18T06:41:07;9.20;;;5.43;;
20391;SDS011;10355;53.688;10.078;2022-12-18T06:43:50;9.52;;;5.38;;
20391;SDS011;10355;53.688;10.078;2022-12-18T06:46:39;12.80;;;5.78;;
20391;SDS011;10355;53.688;10.078;2022-12-18T06:49:22;9.48;;;5.32;;
20391;SDS011;10355;53.688;10.078;2022-12-18T06:52:12;9.13;;;5.50;;
20391;SDS011;10355;53.688;10.078;2022-12-18T06:54:55;10.95;;;5.63;;
20391;SDS011;10355;53.688;10.078;2022-12-18T06:57:38;9.25;;;5.95;;
20391;SDS011;10355;53.688;10.078;2022-12-18T07:00:20;11.23;;;5.88;;
20391;SDS011;10355;53.688;10.078;2022-12-18T07:03:03;11.40;;;5.40;;
20391;SDS011;10355;53.688;10.078;2022-12-18T07:05:46;9.02;;;5.55;;
20391;SDS011;10355;53.688;10.078;2022-12-18T07:08:30;10.38;;;5.88;;
20391;SDS011;10355;53.688;10.078;2022-12-18T07:11:13;10.93;;;5.75;;
20391;SDS011;10355;53.688;10.078;2022-12-18T07:13:55;8.05;;;5.25;;
20391;SDS011;10355;53.688;10.078;2022-12-18T07:16:38;9.13;;;5.78;;
20391;SDS011;10355;53.688;10.078;2022-12-18T07:19:23;9.63;;;5.75;;
20391;SDS011;10355;53.688;10.078;2022-12-18T07:22:05;11.15;;;5.18;;
20391;SDS011;10355;53.688;10.078;2022-12-18T07:24:49;10.85;;;5.72;;
20391;SDS011;10355;53.688;10.078;2022-12-18T07:27:32;9.60;;;5.57;;
20391;SDS011;10355;53.688;10.078;2022-12-18T07:30:15;8.98;;;5.50;;
20391;SDS011;10355;53.688;10.078;2022-12-18T07:32:57;9.27;;;5.75;;
20391;SDS011;10355;53.688;10.078;2022-12-18T07:35:40;12.25;;;6.20;;
20391;SDS011;10355;53.688;10.078;2022-12-18T07:38:22;7.57;;;5.25;;
20391;SDS011;10355;53.688;10.078;2022-12-18T07:41:07;9.30;;;5.80;;
20391;SDS011;10355;53.688;10.078;2022-12-18T07:43:50;9.40;;;5.90;;
20391;SDS011;10355;53.688;10.078;2022-12-18T07:46:32;10.65;;;6.15;;
20391;SDS011;10355;53.688;10.078;2022-12-18T07:49:15;9.85;;;5.40;;
20391;SDS011;10355;53.688;10.078;2022-12-18T07:51:58;9.00;;;5.10;;
20391;SDS011;10355;53.688;10.078;2022-12-18T07:54:41;10.38;;;5.53;;
20391;SDS011;10355;53.688;10.078;2022-12-18T07:57:25;10.57;;;5.80;;
20391;SDS011;10355;53.688;10.078;2022-12-18T08:00:27;11.68;;;5.90;;
20391;SDS011;10355;53.688;10.078;2022-12-18T08:03:10;11.27;;;6.63;;
20391;SDS011;10355;53.688;10.078;2022-12-18T08:05:57;9.00;;;5.70;;
20391;SDS011;10355;53.688;10.078;2022-12-18T08:08:40;9.13;;;5.95;;
20391;SDS011;10355;53.688;10.078;2022-12-18T08:11:24;10.20;;;5.95;;
20391;SDS011;10355;53.688;10.078;2022-12-18T08:14:08;11.90;;;5.90;;
20391;SDS011;10355;53.688;10.078;2022-12-18T08:16:51;11.75;;;6.40;;
20391;SDS011;10355;53.688;10.078;2022-12-18T08:19:34;9.02;;;5.97;;
20391;SDS011;10355;53.688;10.078;2022-12-18T08:22:16;11.32;;;6.28;;
20391;SDS011;10355;53.688;10.078;2022-12-18T08:24:59;10.32;;;6.00;;
20391;SDS011;10355;53.688;10.078;2022-12-18T08:27:42;9.68;;;6.22;;
20391;SDS011;10355;53.688;10.078;2022-12-18T08:30:26;13.48;;;6.78;;
20391;SDS011;10355;53.688;10.078;2022-12-18T08:33:09;12.57;;;6.82;;
20391;SDS011;10355;53.688;10.078;2022-12-18T08:35:51;9.55;;;5.50;;
20391;SDS011;10355;53.688;10.078;2022-12-18T08:38:34;11.60;;;6.80;;
20391;SDS011;10355;53.688;10.078;2022-12-18T08:41:17;10.85;;;6.55;;
20391;SDS011;10355;53.688;10.078;2022-12-18T08:44:00;12.05;;;6.60;;
20391;SDS011;10355;53.688;10.078;2022-12-18T08:47:02;12.13;;;6.68;;
20391;SDS011;10355;53.688;10.078;2022-12-18T08:49:44;12.93;;;6.50;;
20391;SDS011;10355;53.688;10.078;2022-12-18T08:52:27;11.15;;;6.30;;
20391;SDS011;10355;53.688;10.078;2022-12-18T08:55:10;12.38;;;6.50;;
20391;SDS011;10355;53.688;10.078;2022-12-18T08:57:53;13.63;;;6.88;;
20391;SDS011;10355;53.688;10.078;2022-12-18T09:00:35;11.25;;;6.72;;
20391;SDS011;10355;53.688;10.078;2022-12-18T09:03:19;13.32;;;6.57;;
20391;SDS011;10355;53.688;10.078;2022-12-18T09:06:04;10.73;;;6.78;;
20391;SDS011;10355;53.688;10.078;2022-12-18T09:08:46;13.73;;;6.80;;
20391;SDS011;10355;53.688;10.078;2022-12-18T09:11:29;11.65;;;6.60;;
20391;SDS011;10355;53.688;10.078;2022-12-18T09:14:12;11.18;;;6.60;;
20391;SDS011;10355;53.688;10.078;2022-12-18T09:16:55;14.52;;;7.05;;
20391;SDS011;10355;53.688;10.078;2022-12-18T09:19:39;12.85;;;6.60;;
20391;SDS011;10355;53.688;10.078;2022-12-18T09:22:22;11.15;;;6.35;;
20391;SDS011;10355;53.688;10.078;2022-12-18T09:25:04;11.27;;;6.32;;
20391;SDS011;10355;53.688;10.078;2022-12-18T09:27:49;10.90;;;6.85;;
20391;SDS011;10355;53.688;10.078;2022-12-18T09:30:32;10.63;;;6.22;;
20391;SDS011;10355;53.688;10.078;2022-12-18T09:33:16;10.27;;;6.15;;
20391;SDS011;10355;53.688;10.078;2022-12-18T09:36:02;11.50;;;6.45;;
20391;SDS011;10355;53.688;10.078;2022-12-18T09:38:45;9.40;;;5.97;;
20391;SDS011;10355;53.688;10.078;2022-12-18T09:41:33;10.38;;;5.72;;
20391;SDS011;10355;53.688;10.078;2022-12-18T09:44:23;11.30;;;6.15;;
20391;SDS011;10355;53.688;10.078;2022-12-18T09:47:08;9.57;;;5.78;;
20391;SDS011;10355;53.688;10.078;2022-12-18T09:49:52;11.63;;;5.85;;
20391;SDS011;10355;53.688;10.078;2022-12-18T09:52:39;10.35;;;5.95;;
20391;SDS011;10355;53.688;10.078;2022-12-18T09:55:24;9.98;;;6.03;;
20391;SDS011;10355;53.688;10.078;2022-12-18T09:58:19;10.43;;;6.20;;
20391;SDS011;10355;53.688;10.078;2022-12-18T10:01:06;12.27;;;6.45;;
20391;SDS011;10355;53.688;10.078;2022-12-18T10:03:52;11.13;;;6.05;;
20391;SDS011;10355;53.688;10.078;2022-12-18T10:06:35;11.40;;;6.13;;
20391;SDS011;10355;53.688;10.078;2022-12-18T10:09:24;11.95;;;5.78;;
20391;SDS011;10355;53.688;10.078;2022-12-18T10:12:12;12.65;;;6.40;;
20391;SDS011;10355;53.688;10.078;2022-12-18T10:15:01;10.25;;;5.55;;
20391;SDS011;10355;53.688;10.078;2022-12-18T10:17:47;9.15;;;5.72;;
20391;SDS011;10355;53.688;10.078;2022-12-18T10:20:32;9.07;;;5.53;;
20391;SDS011;10355;53.688;10.078;2022-12-18T10:23:17;9.95;;;5.60;;
20391;SDS011;10355;53.688;10.078;2022-12-18T10:26:04;13.13;;;5.75;;
20391;SDS011;10355;53.688;10.078;2022-12-18T10:28:47;8.95;;;5.53;;
20391;SDS011;10355;53.688;10.078;2022-12-18T10:31:30;10.52;;;5.60;;
20391;SDS011;10355;53.688;10.078;2022-12-18T10:34:13;11.93;;;6.10;;
20391;SDS011;10355;53.688;10.078;2022-12-18T10:36:56;11.43;;;5.88;;
20391;SDS011;10355;53.688;10.078;2022-12-18T10:39:39;10.02;;;5.50;;
20391;SDS011;10355;53.688;10.078;2022-12-18T10:42:23;9.07;;;5.50;;
20391;SDS011;10355;53.688;10.078;2022-12-18T10:45:09;11.60;;;6.03;;
20391;SDS011;10355;53.688;10.078;2022-12-18T10:47:52;11.52;;;5.68;;
20391;SDS011;10355;53.688;10.078;2022-12-18T10:50:35;11.18;;;5.50;;
20391;SDS011;10355;53.688;10.078;2022-12-18T10:53:39;9.35;;;5.65;;
20391;SDS011;10355;53.688;10.078;2022-12-18T10:56:24;10.52;;;5.25;;
20391;SDS011;10355;53.688;10.078;2022-12-18T10:59:09;11.55;;;5.60;;
20391;SDS011;10355;53.688;10.078;2022-12-18T11:01:52;10.20;;;5.72;;
20391;SDS011;10355;53.688;10.078;2022-12-18T11:04:36;11.90;;;5.47;;
20391;SDS011;10355;53.688;10.078;2022-12-18T11:07:47;9.63;;;5.80;;
20391;SDS011;10355;53.688;10.078;2022-12-18T11:10:30;10.82;;;5.38;;
20391;SDS011;10355;53.688;10.078;2022-12-18T11:13:16;11.95;;;5.65;;
20391;SDS011;10355;53.688;10.078;2022-12-18T11:16:01;7.78;;;5.43;;
20391;SDS011;10355;53.688;10.078;2022-12-18T11:18:44;8.77;;;5.15;;
20391;SDS011;10355;53.688;10.078;2022-12-18T11:21:27;10.70;;;5.50;;
20391;SDS011;10355;53.688;10.078;2022-12-18T11:24:15;10.40;;;5.38;;
20391;SDS011;10355;53.688;10.078;2022-12-18T11:27:02;10.07;;;5.32;;
20391;SDS011;10355;53.688;10.078;2022-12-18T11:29:45;10.75;;;5.47;;
20391;SDS011;10355;53.688;10.078;2022-12-18T11:32:34;11.15;;;5.05;;
20391;SDS011;10355;53.688;10.078;2022-12-18T11:35:18;8.05;;;5.03;;
20391;SDS011;10355;53.688;10.078;2022-12-18T11:38:04;7.75;;;4.90;;
20391;SDS011;10355;53.688;10.078;2022-12-18T11:40:50;13.05;;;5.28;;
20391;SDS011;10355;53.688;10.078;2022-12-18T11:43:35;9.50;;;5.03;;
20391;SDS011;10355;53.688;10.078;2022-12-18T11:46:23;12.18;;;5.07;;
20391;SDS011;10355;53.688;10.078;2022-12-18T11:49:10;9.10;;;5.18;;
20391;SDS011;10355;53.688;10.078;2022-12-18T11:51:55;10.68;;;5.00;;
20391;SDS011;10355;53.688;10.078;2022-12-18T11:54:40;10.52;;;5.97;;
20391;SDS011;10355;53.688;10.078;2022-12-18T11:57:26;8.73;;;5.15;;
20391;SDS011;10355;53.688;10.078;2022-12-18T12:00:12;8.80;;;5.30;;
20391;SDS011;10355;53.688;10.078;2022-12-18T12:03:10;10.40;;;5.40;;
20391;SDS011;10355;53.688;10.078;2022-12-18T12:05:59;11.85;;;5.60;;
20391;SDS011;10355;53.688;10.078;2022-12-18T12:08:49;11.82;;;6.28;;
20391;SDS011;10355;53.688;10.078;2022-12-18T12:11:39;10.80;;;5.90;;
20391;SDS011;10355;53.688;10.078;2022-12-18T12:14:28;10.52;;;5.38;;
20391;SDS011;10355;53.688;10.078;2022-12-18T12:17:13;8.57;;;5.30;;
20391;SDS011;10355;53.688;10.078;2022-12-18T12:19:58;10.65;;;5.40;;
20391;SDS011;10355;53.688;10.078;2022-12-18T12:22:47;10.45;;;5.80;;
20391;SDS011;10355;53.688;10.078;2022-12-18T12:25:33;11.23;;;5.47;;
20391;SDS011;10355;53.688;10.078;2022-12-18T12:28:21;13.82;;;6.03;;
20391;SDS011;10355;53.688;10.078;2022-12-18T12:31:07;11.65;;;5.97;;
20391;SDS011;10355;53.688;10.078;2022-12-18T12:33:59;9.25;;;5.43;;
20391;SDS011;10355;53.688;10.078;2022-12-18T12:36:46;10.52;;;5.68;;
20391;SDS011;10355;53.688;10.078;2022-12-18T12:39:35;10.95;;;6.07;;
20391;SDS011;10355;53.688;10.078;2022-12-18T12:42:19;15.32;;;6.13;;
20391;SDS011;10355;53.688;10.078;2022-12-18T12:45:26;12.10;;;5.88;;
20391;SDS011;10355;53.688;10.078;2022-12-18T12:48:11;11.52;;;5.97;;
20391;SDS011;10355;53.688;10.078;2022-12-18T12:50:57;8.30;;;5.18;;
20391;SDS011;10355;53.688;10.078;2022-12-18T12:53:41;12.00;;;6.28;;
20391;SDS011;10355;53.688;10.078;2022-12-18T12:56:26;10.40;;;5.68;;
20391;SDS011;10355;53.688;10.078;2022-12-18T12:59:11;12.75;;;5.65;;
20391;SDS011;10355;53.688;10.078;2022-12-18T13:01:57;10.90;;;5.90;;
20391;SDS011;10355;53.688;10.078;2022-12-18T13:04:43;10.40;;;5.88;;
20391;SDS011;10355;53.688;10.078;2022-12-18T13:07:27;9.63;;;5.53;;
20391;SDS011;10355;53.688;10.078;2022-12-18T13:13:11;11.80;;;5.97;;
20391;SDS011;10355;53.688;10.078;2022-12-18T13:16:03;11.43;;;5.97;;
20391;SDS011;10355;53.688;10.078;2022-12-18T13:18:49;12.77;;;6.07;;
20391;SDS011;10355;53.688;10.078;2022-12-18T13:21:33;13.85;;;6.88;;
20391;SDS011;10355;53.688;10.078;2022-12-18T13:24:21;13.93;;;6.53;;
20391;SDS011;10355;53.688;10.078;2022-12-18T13:27:14;12.00;;;6.40;;
20391;SDS011;10355;53.688;10.078;2022-12-18T13:36:39;13.95;;;7.00;;
20391;SDS011;10355;53.688;10.078;2022-12-18T13:42:37;13.95;;;6.85;;
20391;SDS011;10355;53.688;10.078;2022-12-18T13:45:38;15.13;;;7.13;;
20391;SDS011;10355;53.688;10.078;2022-12-18T13:48:23;16.38;;;7.53;;
20391;SDS011;10355;53.688;10.078;2022-12-18T13:51:07;13.50;;;6.85;;
20391;SDS011;10355;53.688;10.078;2022-12-18T13:53:53;15.18;;;7.10;;
20391;SDS011;10355;53.688;10.078;2022-12-18T13:56:42;16.33;;;6.80;;
20391;SDS011;10355;53.688;10.078;2022-12-18T13:59:26;15.80;;;7.68;;
20391;SDS011;10355;53.688;10.078;2022-12-18T14:02:12;16.30;;;7.50;;
20391;SDS011;10355;53.688;10.078;2022-12-18T14:04:56;17.63;;;7.22;;
20391;SDS011;10355;53.688;10.078;2022-12-18T14:07:38;14.02;;;7.50;;
20391;SDS011;10355;53.688;10.078;2022-12-18T14:10:30;16.02;;;7.65;;
20391;SDS011;10355;53.688;10.078;2022-12-18T14:13:31;14.60;;;7.43;;
20391;SDS011;10355;53.688;10.078;2022-12-18T14:16:15;14.43;;;7.53;;
20391;SDS011;10355;53.688;10.078;2022-12-18T14:18:59;17.88;;;8.45;;
20391;SDS011;10355;53.688;10.078;2022-12-18T14:21:56;16.92;;;8.75;;
20391;SDS011;10355;53.688;10.078;2022-12-18T14:24:38;18.08;;;9.00;;
20391;SDS011;10355;53.688;10.078;2022-12-18T14:27:23;14.48;;;8.00;;
20391;SDS011;10355;53.688;10.078;2022-12-18T14:30:18;16.52;;;8.35;;
20391;SDS011;10355;53.688;10.078;2022-12-18T14:33:08;18.63;;;7.63;;
20391;SDS011;10355;53.688;10.078;2022-12-18T14:35:53;17.30;;;8.23;;
20391;SDS011;10355;53.688;10.078;2022-12-18T14:38:36;16.48;;;7.90;;
20391;SDS011;10355;53.688;10.078;2022-12-18T14:41:19;19.73;;;8.73;;
20391;SDS011;10355;53.688;10.078;2022-12-18T14:44:06;17.30;;;8.55;;
20391;SDS011;10355;53.688;10.078;2022-12-18T14:46:49;18.38;;;8.80;;
20391;SDS011;10355;53.688;10.078;2022-12-18T14:49:33;23.23;;;9.23;;
20391;SDS011;10355;53.688;10.078;2022-12-18T14:52:19;16.27;;;8.43;;
20391;SDS011;10355;53.688;10.078;2022-12-18T14:55:05;16.75;;;8.57;;
20391;SDS011;10355;53.688;10.078;2022-12-18T14:57:49;18.65;;;8.05;;
20391;SDS011;10355;53.688;10.078;2022-12-18T15:00:34;20.63;;;8.75;;
20391;SDS011;10355;53.688;10.078;2022-12-18T15:03:23;18.55;;;9.18;;
20391;SDS011;10355;53.688;10.078;2022-12-18T15:06:16;20.48;;;9.68;;
20391;SDS011;10355;53.688;10.078;2022-12-18T15:09:00;20.23;;;9.27;;
20391;SDS011;10355;53.688;10.078;2022-12-18T15:11:44;19.02;;;9.15;;
20391;SDS011;10355;53.688;10.078;2022-12-18T15:14:32;20.65;;;9.43;;
20391;SDS011;10355;53.688;10.078;2022-12-18T15:17:18;20.40;;;9.63;;
20391;SDS011;10355;53.688;10.078;2022-12-18T15:20:03;22.13;;;9.65;;
20391;SDS011;10355;53.688;10.078;2022-12-18T15:22:51;22.52;;;9.48;;
20391;SDS011;10355;53.688;10.078;2022-12-18T15:25:35;21.15;;;10.32;;
20391;SDS011;10355;53.688;10.078;2022-12-18T15:28:20;21.52;;;9.20;;
20391;SDS011;10355;53.688;10.078;2022-12-18T15:31:05;22.52;;;10.05;;
20391;SDS011;10355;53.688;10.078;2022-12-18T15:34:10;24.50;;;10.70;;
20391;SDS011;10355;53.688;10.078;2022-12-18T15:36:53;24.17;;;10.90;;
20391;SDS011;10355;53.688;10.078;2022-12-18T15:39:36;25.63;;;10.27;;
20391;SDS011;10355;53.688;10.078;2022-12-18T15:42:19;24.38;;;10.43;;
20391;SDS011;10355;53.688;10.078;2022-12-18T15:45:19;26.13;;;10.63;;
20391;SDS011;10355;53.688;10.078;2022-12-18T15:48:08;25.25;;;10.57;;
20391;SDS011;10355;53.688;10.078;2022-12-18T15:50:56;22.83;;;10.20;;
20391;SDS011;10355;53.688;10.078;2022-12-18T15:53:39;23.63;;;10.13;;
20391;SDS011;10355;53.688;10.078;2022-12-18T15:56:23;22.15;;;9.80;;
20391;SDS011;10355;53.688;10.078;2022-12-18T15:59:24;24.13;;;9.63;;
20391;SDS011;10355;53.688;10.078;2022-12-18T16:02:08;25.35;;;10.35;;
20391;SDS011;10355;53.688;10.078;2022-12-18T16:04:56;24.17;;;10.70;;
20391;SDS011;10355;53.688;10.078;2022-12-18T16:07:40;25.20;;;10.52;;
20391;SDS011;10355;53.688;10.078;2022-12-18T16:10:23;22.20;;;10.20;;
20391;SDS011;10355;53.688;10.078;2022-12-18T16:13:08;22.70;;;10.18;;
20391;SDS011;10355;53.688;10.078;2022-12-18T16:15:51;24.58;;;10.35;;
20391;SDS011;10355;53.688;10.078;2022-12-18T16:18:34;24.77;;;10.70;;
20391;SDS011;10355;53.688;10.078;2022-12-18T16:21:17;27.70;;;10.48;;
20391;SDS011;10355;53.688;10.078;2022-12-18T16:24:01;20.80;;;9.73;;